It looks like you're using an Ad Blocker.

Please white-list or disable AboveTopSecret.com in your ad-blocking tool.

Thank you.

 

Some features of ATS will be disabled while you continue to use an ad-blocker.

 

5.9 Earthquake Hit Southern California

page: 7
24
<< 4  5  6    8  9  10 >>

log in

join
share:

posted on Jun, 15 2010 @ 02:46 AM
link   
findtut.com...

It was in India too. In nicobar islands. See the link for news.




posted on Jun, 15 2010 @ 03:00 AM
link   

Originally posted by chaosinorder
findtut.com...

It was in India too. In nicobar islands. See the link for news.


Wow. Thats huge. No doubt its an Earthquake and not an Aftershock....

Looks like Mother Earth is doing some work.



posted on Jun, 15 2010 @ 03:10 AM
link   
Just to clarify, the 7.5 quake was on 6/12

MAP 7.5 2010/06/12 19:26:50 7.748 91.938 35.0 NICOBAR ISLANDS, INDIA REGION



posted on Jun, 15 2010 @ 03:12 AM
link   
I am curious as to why they aren't really reporting this on the news channels like cnn or msnbc or whatever. I mean isn't this a highly unusual amount of shocks, tremors, what have you? I see nothing here on the east coast.
This here has been the best news feed about it all night or I would have never known.
You folks went quiet, have they stopped or slowed down?

[edit on 15-6-2010 by yigsstarhouse]



posted on Jun, 15 2010 @ 03:17 AM
link   
reply to post by yigsstarhouse
 


Well, 5.7 really isn't that big and being 4:00 in the morning on the east coast right now, not too many people are paying attention over there to the current swarm.


Earthquakes are ofcourse common in California, but this is most certainly something to be paying attention to. It really hasn't slowed down much; Check out the current list:

MAG UTC DATE-TIMEy/m/d h:m:s LAT degLON degDEPTH km Region

MAP 3.6 2010/06/15 08:11:24 32.695 -115.949 3.0 SOUTHERN CALIFORNIA
MAP 2.8 2010/06/15 08:09:47 32.682 -115.963 11.1 SOUTHERN CALIFORNIA
MAP 2.6 2010/06/15 08:06:20 32.654 -115.933 6.8 SOUTHERN CALIFORNIA
MAP 2.7 2010/06/15 08:05:27 32.708 -115.976 3.7 SOUTHERN CALIFORNIA
MAP 2.5 2010/06/15 08:00:45 32.720 -115.966 0.3 SOUTHERN CALIFORNIA
MAP 2.5 2010/06/15 07:59:47 32.706 -115.971 7.4 SOUTHERN CALIFORNIA
MAP 2.5 2010/06/15 07:59:29 32.660 -115.915 0.0 SOUTHERN CALIFORNIA
MAP 2.5 2010/06/15 07:53:53 32.657 -115.912 5.7 SOUTHERN CALIFORNIA
MAP 2.7 2010/06/15 07:48:42 32.718 -115.968 0.0 SOUTHERN CALIFORNIA
MAP 2.7 2010/06/15 07:48:12 32.711 -115.972 3.9 SOUTHERN CALIFORNIA
MAP 2.5 2010/06/15 07:46:00 32.667 -115.933 11.6 SOUTHERN CALIFORNIA
MAP 2.7 2010/06/15 07:44:43 32.683 -115.952 3.3 SOUTHERN CALIFORNIA
MAP 2.7 2010/06/15 07:43:20 33.145 -115.994 17.0 SOUTHERN CALIFORNIA
MAP 2.9 2010/06/15 07:42:52 32.712 -115.953 0.0 SOUTHERN CALIFORNIA
MAP 3.0 2010/06/15 07:39:44 32.683 -115.933 10.3 SOUTHERN CALIFORNIA
MAP 3.4 2010/06/15 06:52:27 32.679 -115.921 6.7 SOUTHERN CALIFORNIA
MAP 2.5 2010/06/15 06:49:22 32.651 -115.904 0.3 SOUTHERN CALIFORNIA
MAP 3.6 2010/06/15 06:46:08 32.670 -115.907 2.1 SOUTHERN CALIFORNIA
MAP 3.6 2010/06/15 06:46:03 32.693 -115.916 7.5 SOUTHERN CALIFORNIA
MAP 2.6 2010/06/15 06:45:04 32.723 -115.960 0.5 SOUTHERN CALIFORNIA
MAP 2.6 2010/06/15 06:44:41 32.716 -115.953 6.4 SOUTHERN CALIFORNIA
MAP 3.0 2010/06/15 06:40:18 32.694 -115.969 5.4 SOUTHERN CALIFORNIA
MAP 3.1 2010/06/15 06:33:45 32.703 -115.976 5.1 SOUTHERN CALIFORNIA
MAP 3.5 2010/06/15 06:32:12 32.677 -115.924 7.3 SOUTHERN CALIFORNIA
MAP 3.1 2010/06/15 06:31:40 32.696 -115.971 6.8 SOUTHERN CALIFORNIA
MAP 3.5 2010/06/15 06:23:37 32.666 -115.953 5.1 SOUTHERN CALIFORNIA
MAP 2.8 2010/06/15 06:23:03 32.700 -115.943 1.8 SOUTHERN CALIFORNIA
MAP 2.6 2010/06/15 06:14:44 32.679 -115.964 5.6 SOUTHERN CALIFORNIA
MAP 2.8 2010/06/15 06:12:09 32.697 -115.942 4.7 SOUTHERN CALIFORNIA
MAP 2.7 2010/06/15 06:11:19 32.706 -115.969 3.4 SOUTHERN CALIFORNIA
MAP 3.8 2010/06/15 06:08:28 32.672 -115.964 7.0 SOUTHERN CALIFORNIA
MAP 2.9 2010/06/15 06:07:50 32.734 -115.971 0.2 SOUTHERN CALIFORNIA
MAP 2.9 2010/06/15 05:54:02 32.726 -115.982 5.6 SOUTHERN CALIFORNIA
MAP 3.0 2010/06/15 05:52:33 65.472 -150.145 0.3 NORTHERN ALASKA
MAP 2.5 2010/06/15 05:45:48 33.990 -116.842 9.5 SOUTHERN CALIFORNIA
MAP 2.6 2010/06/15 05:36:58 32.711 -115.975 3.4 SOUTHERN CALIFORNIA
MAP 4.3 2010/06/15 05:34:16 32.709 -115.958 3.6 SOUTHERN CALIFORNIA
MAP 3.5 2010/06/15 05:31:20 32.777 -116.009 0.1 SOUTHERN CALIFORNIA
MAP 3.5 2010/06/15 05:31:00 32.638 -115.915 11.0 SOUTHERN CALIFORNIA
MAP 2.8 2010/06/15 05:15:28 32.678 -115.938 3.2 SOUTHERN CALIFORNIA
MAP 2.6 2010/06/15 05:05:43 32.696 -115.945 0.6 SOUTHERN CALIFORNIA
MAP 2.6 2010/06/15 05:03:35 32.711 -115.968 3.8 SOUTHERN CALIFORNIA
MAP 4.5 2010/06/15 04:59:46 32.708 -115.948 10.5 SOUTHERN CALIFORNIA
MAP 3.1 2010/06/15 04:59:06 32.680 -115.927 3.5 SOUTHERN CALIFORNIA
MAP 3.2 2010/06/15 04:57:52 32.694 -115.969 4.0 SOUTHERN CALIFORNIA
MAP 3.6 2010/06/15 04:56:48 32.687 -115.942 0.3 SOUTHERN CALIFORNIA
MAP 2.8 2010/06/15 04:55:34 32.689 -115.944 3.4 SOUTHERN CALIFORNIA
MAP 2.5 2010/06/15 04:54:26 32.716 -115.977 2.9 SOUTHERN CALIFORNIA
MAP 2.6 2010/06/15 04:53:32 32.681 -115.946 5.6 SOUTHERN CALIFORNIA
MAP 2.7 2010/06/15 04:53:14 32.685 -115.960 14.2 SOUTHERN CALIFORNIA
MAP 2.6 2010/06/15 04:53:02 32.728 -115.947 2.8 SOUTHERN CALIFORNIA
MAP 2.8 2010/06/15 04:52:09 32.673 -115.932 2.3 SOUTHERN CALIFORNIA
MAP 2.8 2010/06/15 04:51:30 32.693 -115.938 2.9 SOUTHERN CALIFORNIA
MAP 2.6 2010/06/15 04:49:29 32.708 -115.961 4.2 SOUTHERN CALIFORNIA
MAP 3.4 2010/06/15 04:48:06 32.690 -115.932 3.8 SOUTHERN CALIFORNIA
MAP 3.5 2010/06/15 04:47:23 32.694 -115.926 1.5 SOUTHERN CALIFORNIA
MAP 3.0 2010/06/15 04:45:46 32.688 -115.899 3.7 SOUTHERN CALIFORNIA
MAP 2.9 2010/06/15 04:44:42 32.701 -115.944 3.1 SOUTHERN CALIFORNIA
MAP 3.7 2010/06/15 04:43:10 32.683 -115.947 2.9 SOUTHERN CALIFORNIA
MAP 3.8 2010/06/15 04:40:37 32.661 -115.946 13.6 SOUTHERN CALIFORNIA
MAP 2.9 2010/06/15 04:40:16 32.690 -115.940 0.1 SOUTHERN CALIFORNIA
MAP 3.2 2010/06/15 04:39:46 32.710 -115.965 3.7 SOUTHERN CALIFORNIA
MAP 2.8 2010/06/15 04:38:55 32.683 -115.932 3.4 SOUTHERN CALIFORNIA
MAP 3.9 2010/06/15 04:36:33 32.679 -115.910 7.4 SOUTHERN CALIFORNIA
MAP 4.0 2010/06/15 04:36:08 32.709 -115.916 0.0 SOUTHERN CALIFORNIA
MAP 2.7 2010/06/15 04:35:47 32.696 -115.965 8.7 SOUTHERN CALIFORNIA
MAP 3.4 2010/06/15 04:34:26 32.696 -115.955 0.0 SOUTHERN CALIFORNIA
MAP 3.2 2010/06/15 04:33:05 32.659 -115.930 6.0 SOUTHERN CALIFORNIA
MAP 3.6 2010/06/15 04:31:54 32.715 -115.947 0.1 SOUTHERN CALIFORNIA
MAP 3.9 2010/06/15 04:29:56 32.704 -115.966 11.6 SOUTHERN CALIFORNIA
MAP 5.7 2010/06/15 04:26:58 32.698 -115.924 6.9 SOUTHERN CALIFORNIA


[edit on 15-6-2010 by westcoast]



posted on Jun, 15 2010 @ 03:28 AM
link   

Originally posted by yigsstarhouse
I am curious as to why they aren't really reporting this on the news channels like cnn or msnbc or whatever. I mean isn't this a highly unusual amount of shocks, tremors, what have you? I see nothing here on the east coast.
This here has been the best news feed about it all night or I would have never known.
You folks went quiet, have they stopped or slowed down?

[edit on 15-6-2010 by yigsstarhouse]


I havnt felt any aftershocks for about 30mins or so. But their still happening, and plenty are at 3.5 + hopefully morning the heat won't add to it.



posted on Jun, 15 2010 @ 03:29 AM
link   
And since that 3.6 at the top of the list above:

MAP 1.9 2010/06/15 08:25:34 33.388 -116.403 10.9 16 km ( 10 mi) N of Borrego Springs, CA
MAP 3.2 2010/06/15 08:24:32 32.651 -115.873 0.0 15 km ( 9 mi) SE of Ocotillo, CA
MAP 2.3 2010/06/15 08:23:03 32.636 -115.876 0.0 16 km ( 10 mi) SE of Ocotillo, CA
MAP 2.3 2010/06/15 08:22:50 32.644 -115.918 18.1 13 km ( 8 mi) SE of Ocotillo, CA
MAP 4.0 2010/06/15 08:16:50 32.690 -115.931 1.9 8 km ( 5 mi) SE of Ocotillo, CA
MAP 4.1 2010/06/15 08:14:46 32.680 -115.915 1.6 10 km ( 6 mi) SE of Ocotillo, CA

Link to USGS (limited to the geographic area): earthquake.usgs.gov...

[edit on 6/15/2010 by abecedarian]



posted on Jun, 15 2010 @ 03:42 AM
link   
It finally got picked up by CBS although they simply mentioned "a moderate quake with some aftershocks". Only "some" aftershocks?



posted on Jun, 15 2010 @ 03:43 AM
link   
reply to post by Three_moons
 


"Some aftershocks?" Hilarious.
I just posted 6 aftershocks in the span of 10 minutes.

Edit- *5* : scratch the Borrego Springs one.

Look at the number of quakes shown on the image at the link below. When I started looking it was at 393 quakes shown.
earthquake.usgs.gov...

[edit on 6/15/2010 by abecedarian]



posted on Jun, 15 2010 @ 04:19 AM
link   
They reported "a moderate earthquake with some aftershocks"?


Okay, I guess I'd probably agree with them about the "moderate" part. A 5.7 is not really all that unusual here in California and most people won't even take notice until it goes at least upwards of a 6.0.

But I'd have to say this is a LOT more than "some" aftershocks. I haven't counted them, but they're filling up the whole USGS page, all Ocotillo, seems to be one about every 1 to 3 minutes or so, probably average around 2.0 to 2.5, but there's a fair share of 3's and 4's in the list too. And so far, I really don't see that the aftershocks are slowing down at all.

I know that aftershocks are not uncommon. And it's not unusual to have hundreds of them after a big earthquake. But this many aftershocks after a 5.7 seems a bit unusual to me.



posted on Jun, 15 2010 @ 04:19 AM
link   
peeps this is part of a ongoing earthquake swarm since about a month before that 7.2 hit . but with all of the quakes one could think that this part of california which borders mexico is about to break off of the main land ,



posted on Jun, 15 2010 @ 04:33 AM
link   
I felt 2 earthquakes. I was sitting in my assigned ride at my post of the day when I felt the earthquakes. I'm very susceptible to earthquake and I felt them seconds before they hit.

I was in San Ysidro, inside my ride, listening to coast to coast while doing my job when the air around me became quiet and everything felt silent. That's when I felt like butterflies in my stomach(not the love ones)and several seconds later I felt the earth wave and then shook really hard and then stopped, 2 seconds later the same thing happened but after it shook the waving didn't stop right way. Some one got on the radio and said "you guys felt the earthquake?" When the person said that I was still feeling it so I responded by saying "it's still going". In mere minutes it was announced the magnitude and where it originated.

Hopefully no one got hurt!



posted on Jun, 15 2010 @ 04:57 AM
link   
Wow, I hope you all are alright. I really do think something is going bad with the earth.

We have gotten 14+ inches of rain here in Oklahoma over the last 24 hours.
Im trying not to be paranoid but something is going on.



posted on Jun, 15 2010 @ 05:08 AM
link   
When you throw the 2.5+ mags in with the smaller ones it's like one big, long rumble from the original 5.7....



posted on Jun, 15 2010 @ 05:13 AM
link   
I've been a quake follower for a couple of years and realize this is an ongoing swarm although the frequency within such a short duration of time is what seems impressive and interesting. Including micro quakes, there have been over 220 of them within about 5 hours.

I'm interested to hear PuterMan's take on the situation. Stay safe Californians!



posted on Jun, 15 2010 @ 06:00 AM
link   
So, is California going to sink as predicted ?



posted on Jun, 15 2010 @ 06:06 AM
link   
I'm in So Calif and funny I didn't feel anything,I'm in mountains at approx 3800 ft,didn't feel a thing.not even a sound



posted on Jun, 15 2010 @ 06:55 AM
link   

Originally posted by America?
Maybe that one kid doing the earthquake predictions for California was right?


just posted on that thread :
www.abovetopsecret.com...

Oh how we laughed.

the lad might be right.



posted on Jun, 15 2010 @ 07:32 AM
link   
arnt earthquakes common in cali? i mean why is this such a big deal?

is it not earthquake season or something?



posted on Jun, 15 2010 @ 07:34 AM
link   
reply to post by TiM3LoRd
 


earthquake season ? is there such a thing ?

I think the amount today is wierd (might be wrong)




top topics



 
24
<< 4  5  6    8  9  10 >>

log in

join